Time;durP1;ratioP1;P1;durP2;ratioP2;P2;SDS_P1;SDS_P2;PMS_P1;PMS_P2;Temp;Humidity;BMP_temperature;BMP_pressure;BME280_temperature;BME280_humidity;BME280_pressure;Samples;Min_cycle;Max_cycle;Signal;HPM_P1;HPM_P2
2022/11/08 00:01:50;;;;;;;2.85;1.48;;;;;;;4.20;83.69;100093.69;10614973;28;20055;-77
2022/11/08 00:17:34;;;;;;;2.33;1.15;;;;;;;4.07;84.18;100085.91;10614172;28;20040;-77
2022/11/08 00:22:36;;;;;;;3.38;1.27;;;;;;;4.03;84.44;100085.59;10600082;28;20043;-77
2022/11/08 00:27:38;;;;;;;3.13;1.73;;;;;;;4.04;83.92;100075.56;10570630;28;20048;-77
2022/11/08 00:32:40;;;;;;;2.17;1.42;;;;;;;4.06;84.64;100062.56;10598125;28;20054;-77
2022/11/08 00:37:42;;;;;;;1.95;1.33;;;;;;;4.02;84.93;100064.13;10611947;28;20044;-77
2022/11/08 00:42:44;;;;;;;1.83;1.35;;;;;;;4.06;84.63;100059.84;10594334;28;20626;-77
2022/11/08 00:47:47;;;;;;;2.08;1.60;;;;;;;4.01;84.93;100052.44;10612889;28;20032;-77
2022/11/08 00:52:49;;;;;;;1.88;1.30;;;;;;;3.94;84.65;100047.19;10611487;28;20062;-77
2022/11/08 00:57:51;;;;;;;3.22;1.80;;;;;;;3.94;85.52;100041.75;10612658;28;20043;-77
2022/11/08 01:08:14;;;;;;;3.13;1.55;;;;;;;3.96;85.54;100035.25;10594382;28;20036;-77
2022/11/08 01:13:17;;;;;;;2.60;2.05;;;;;;;3.98;85.40;100028.50;10586067;28;20032;-76
2022/11/08 01:18:20;;;;;;;3.15;1.55;;;;;;;3.96;85.94;100021.69;10602009;28;20537;-77
2022/11/08 01:23:22;;;;;;;3.78;1.92;;;;;;;3.98;85.87;100014.94;10607484;28;20066;-77
2022/11/08 01:28:25;;;;;;;3.45;1.70;;;;;;;3.96;86.18;100005.41;10609477;28;20051;-75
2022/11/08 01:33:27;;;;;;;5.38;2.35;;;;;;;3.94;86.83;100005.66;10603485;28;20039;-75
2022/11/08 01:38:29;;;;;;;2.95;1.85;;;;;;;4.01;86.95;99998.16;10589709;28;20402;-75
2022/11/08 01:43:49;;;;;;;2.45;1.70;;;;;;;3.97;87.90;99997.00;10593160;28;20536;-75
2022/11/08 01:48:58;;;;;;;3.55;1.85;;;;;;;3.96;88.84;99992.66;10608962;28;20453;-77
2022/11/08 01:54:02;;;;;;;4.53;1.73;;;;;;;4.03;89.79;99976.19;10604981;28;20047;-76
2022/11/08 01:59:06;;;;;;;3.47;2.00;;;;;;;3.97;90.55;99969.84;10590151;28;20510;-77
2022/11/08 02:04:09;;;;;;;4.35;2.58;;;;;;;3.90;90.21;99980.09;10611442;28;20043;-76
2022/11/08 02:09:13;;;;;;;4.85;1.95;;;;;;;3.90;91.39;99959.22;10601226;28;20221;-76
2022/11/08 02:14:15;;;;;;;3.88;2.28;;;;;;;3.92;92.00;99948.91;10618705;28;20059;-76
2022/11/08 02:19:33;;;;;;;3.95;2.13;;;;;;;3.87;92.01;99932.59;10600568;28;20417;-76
2022/11/08 02:24:35;;;;;;;4.88;2.42;;;;;;;3.93;92.22;99936.97;10601323;28;20055;-76
2022/11/08 02:29:38;;;;;;;3.22;2.10;;;;;;;3.83;92.66;99925.22;10619044;28;20055;-76
2022/11/08 02:35:01;;;;;;;4.20;2.20;;;;;;;3.83;93.67;99922.50;10618371;28;20051;-76
2022/11/08 02:40:04;;;;;;;4.13;2.00;;;;;;;3.76;93.93;99917.25;10617626;28;20221;-76
2022/11/08 02:45:07;;;;;;;4.35;2.42;;;;;;;3.88;94.50;99911.69;10617131;28;20067;-76
2022/11/08 02:50:09;;;;;;;3.45;1.92;;;;;;;3.96;94.96;99904.97;10599597;28;20413;-76
2022/11/08 02:55:11;;;;;;;4.00;2.42;;;;;;;3.96;95.52;99899.53;10617411;28;20048;-76
2022/11/08 03:00:13;;;;;;;3.10;2.15;;;;;;;3.96;95.67;99885.97;10632699;28;20046;-76
2022/11/08 03:05:19;;;;;;;1.88;1.40;;;;;;;3.87;95.73;99883.72;10657467;28;20047;-76
2022/11/08 03:10:23;;;;;;;4.40;1.73;;;;;;;3.86;96.19;99882.09;10650725;28;20040;-76
2022/11/08 03:15:26;;;;;;;3.58;1.88;;;;;;;3.87;96.39;99872.06;10656333;27;20058;-76
2022/11/08 03:20:28;;;;;;;2.80;1.85;;;;;;;3.93;96.17;99868.31;10640944;28;20517;-76
2022/11/08 03:25:30;;;;;;;2.22;1.80;;;;;;;4.01;96.23;99857.00;10613708;28;20055;-76
2022/11/08 03:30:33;;;;;;;2.65;1.90;;;;;;;4.06;96.91;99856.22;10633728;28;20528;-76
2022/11/08 03:35:36;;;;;;;4.10;2.13;;;;;;;4.10;96.91;99852.72;10656555;28;20058;-76
2022/11/08 03:40:56;;;;;;;3.35;1.95;;;;;;;4.10;97.46;99841.88;10654666;28;20031;-76
2022/11/08 03:45:59;;;;;;;3.65;2.25;;;;;;;4.16;97.55;99848.16;10636150;28;20035;-76
2022/11/08 03:51:06;;;;;;;2.90;2.00;;;;;;;4.19;97.35;99834.09;10644420;27;20050;-76
2022/11/08 03:56:09;;;;;;;6.30;2.73;;;;;;;4.27;97.97;99833.59;10646522;28;20035;-76
2022/11/08 04:01:11;;;;;;;3.85;2.30;;;;;;;4.26;98.32;99814.84;10609193;27;1117880;-75
2022/11/08 04:06:13;;;;;;;4.55;2.03;;;;;;;4.23;97.77;99814.28;10656809;27;20040;-77
2022/11/08 04:16:36;;;;;;;3.90;2.67;;;;;;;4.38;98.74;99805.44;10672236;27;20027;-76
2022/11/08 04:21:42;;;;;;;3.53;2.60;;;;;;;4.41;98.05;99799.47;10645207;27;20031;-80
2022/11/08 04:26:44;;;;;;;5.65;1.98;;;;;;;4.45;98.66;99781.56;10622773;27;20051;-77
2022/11/08 04:31:46;;;;;;;3.70;2.40;;;;;;;4.45;98.53;99780.75;10630549;27;20047;-77
2022/11/08 04:36:48;;;;;;;6.43;2.50;;;;;;;4.47;98.50;99781.31;10651762;27;20039;-77
2022/11/08 04:41:51;;;;;;;5.43;2.78;;;;;;;4.48;99.13;99786.47;10653280;27;20060;-77
2022/11/08 04:46:53;;;;;;;4.15;2.70;;;;;;;4.47;98.83;99781.31;10652346;27;20535;-78
2022/11/08 04:51:55;;;;;;;5.25;2.75;;;;;;;4.53;99.83;99778.38;10638362;27;20039;-77
2022/11/08 04:56:57;;;;;;;4.70;2.65;;;;;;;4.50;99.66;99776.16;10649107;27;20382;-77
2022/11/08 05:01:59;;;;;;;4.75;2.60;;;;;;;4.51;100.00;99758.81;10614531;27;20047;-77
2022/11/08 05:07:01;;;;;;;5.65;2.70;;;;;;;4.60;99.70;99761.84;10639188;27;20497;-77
2022/11/08 05:12:04;;;;;;;4.57;2.88;;;;;;;4.68;100.00;99755.06;10639570;27;20035;-76
2022/11/08 05:17:06;;;;;;;6.03;3.13;;;;;;;4.67;100.00;99756.16;10650008;27;20043;-76
2022/11/08 05:27:29;;;;;;;5.70;3.00;;;;;;;4.71;100.00;99740.97;10643953;27;20540;-83
2022/11/08 05:32:32;;;;;;;5.05;3.05;;;;;;;4.82;100.00;99739.94;10634420;27;20039;-78
2022/11/08 05:37:34;;;;;;;6.90;3.33;;;;;;;4.81;100.00;99739.09;10648969;27;20043;-77
2022/11/08 05:42:36;;;;;;;5.65;3.38;;;;;;;4.81;100.00;99735.56;10653206;27;20202;-77
2022/11/08 05:47:38;;;;;;;6.93;3.33;;;;;;;4.86;100.00;99727.47;10631962;27;20525;-77
2022/11/08 05:52:40;;;;;;;6.63;3.80;;;;;;;4.92;100.00;99726.38;10592721;28;20036;-77
2022/11/08 05:57:42;;;;;;;6.25;3.00;;;;;;;4.98;100.00;99719.88;10611493;28;20137;-77
2022/11/08 06:02:45;;;;;;;6.20;3.15;;;;;;;5.08;100.00;99708.22;10610350;28;20063;-77
2022/11/08 06:07:47;;;;;;;5.82;2.85;;;;;;;5.11;100.00;99707.69;10610737;28;20047;-77
2022/11/08 06:12:49;;;;;;;5.30;3.13;;;;;;;5.12;100.00;99698.44;10610462;28;20048;-77
2022/11/08 06:17:51;;;;;;;4.97;3.10;;;;;;;5.18;100.00;99707.41;10610581;28;20047;-77
2022/11/08 06:22:54;;;;;;;4.57;2.72;;;;;;;5.30;100.00;99697.13;10609888;28;20066;-77
2022/11/08 06:27:58;;;;;;;6.03;2.92;;;;;;;5.33;100.00;99689.22;10577798;28;20044;-77
2022/11/08 06:33:00;;;;;;;5.30;2.75;;;;;;;5.33;100.00;99685.69;10591128;28;20404;-77
2022/11/08 06:38:03;;;;;;;6.53;2.80;;;;;;;5.36;100.00;99685.97;10609837;28;20040;-77
2022/11/08 06:43:05;;;;;;;6.50;3.67;;;;;;;5.36;100.00;99677.81;10609661;28;20050;-77
2022/11/08 06:48:08;;;;;;;7.38;3.08;;;;;;;5.40;100.00;99675.38;10610768;28;20044;-77
2022/11/08 06:53:16;;;;;;;7.40;3.58;;;;;;;5.45;100.00;99669.94;10614983;28;20053;-77
2022/11/08 06:58:18;;;;;;;7.03;3.87;;;;;;;5.54;100.00;99668.28;10616994;28;20063;-77
2022/11/08 07:03:20;;;;;;;7.82;3.40;;;;;;;5.56;100.00;99671.59;10659438;27;20055;-77
2022/11/08 07:08:22;;;;;;;6.63;2.85;;;;;;;5.61;100.00;99660.69;10652715;27;20058;-77
2022/11/08 07:13:25;;;;;;;6.80;3.30;;;;;;;5.65;100.00;99648.16;10618986;27;20039;-77
2022/11/08 07:18:27;;;;;;;6.15;3.35;;;;;;;5.73;100.00;99655.78;10616613;28;20054;-77
2022/11/08 07:23:29;;;;;;;7.57;3.60;;;;;;;5.79;100.00;99647.63;10617046;28;20043;-77
2022/11/08 07:28:32;;;;;;;6.85;3.15;;;;;;;5.80;100.00;99639.19;10616299;28;20044;-77
2022/11/08 07:33:34;;;;;;;4.38;2.47;;;;;;;5.83;100.00;99629.63;10617251;27;20040;-77
2022/11/08 07:38:36;;;;;;;6.00;3.08;;;;;;;5.89;100.00;99626.63;10646978;27;20405;-78
2022/11/08 07:43:38;;;;;;;5.80;2.75;;;;;;;5.93;100.00;99624.22;10657225;27;20050;-77
2022/11/08 07:48:51;;;;;;;8.07;3.58;;;;;;;5.95;100.00;99622.03;10658690;27;20054;-77
2022/11/08 07:53:54;;;;;;;6.75;2.95;;;;;;;5.97;100.00;99617.13;10616976;27;20046;-77
2022/11/08 07:58:56;;;;;;;6.63;2.95;;;;;;;6.01;100.00;99621.75;10614705;28;20055;-77
2022/11/08 08:03:59;;;;;;;6.30;3.17;;;;;;;6.03;100.00;99621.47;10613481;28;20051;-77
2022/11/08 08:09:01;;;;;;;7.22;3.00;;;;;;;6.04;100.00;99612.19;10596181;28;20425;-77
2022/11/08 08:14:03;;;;;;;5.45;2.88;;;;;;;6.06;100.00;99610.00;10610452;28;20438;-76
2022/11/08 08:19:05;;;;;;;6.22;2.53;;;;;;;6.12;100.00;99606.19;10613924;28;20035;-81
2022/11/08 08:24:08;;;;;;;6.25;2.55;;;;;;;6.14;100.00;99611.38;10595788;28;20052;-77
2022/11/08 08:29:10;;;;;;;6.45;3.10;;;;;;;6.14;100.00;99600.47;10596030;28;20043;-75
2022/11/08 08:34:14;;;;;;;5.35;2.75;;;;;;;6.15;100.00;99602.91;10595958;28;20059;-76
2022/11/08 08:39:16;;;;;;;6.90;2.85;;;;;;;6.18;100.00;99593.38;10612546;28;20040;-76
2022/11/08 08:44:18;;;;;;;5.40;2.70;;;;;;;6.18;100.00;99596.91;10612059;28;20398;-77
2022/11/08 08:49:20;;;;;;;7.50;2.90;;;;;;;6.23;100.00;99587.91;10599379;27;20039;-77
2022/11/08 08:54:23;;;;;;;4.25;2.22;;;;;;;6.28;100.00;99593.34;10593626;28;20419;-77
2022/11/08 08:59:26;;;;;;;8.27;2.45;;;;;;;6.32;100.00;99583.50;10621750;27;20042;-78
2022/11/08 09:04:28;;;;;;;6.38;2.55;;;;;;;6.34;100.00;99578.59;10657013;27;20050;-76
2022/11/08 09:09:32;;;;;;;5.28;2.25;;;;;;;6.38;100.00;99576.13;10638429;27;20054;-78
2022/11/08 09:14:35;;;;;;;4.00;2.10;;;;;;;6.46;100.00;99567.38;10644125;27;20047;-78
2022/11/08 09:19:37;;;;;;;5.38;2.13;;;;;;;6.52;100.00;99569.78;10632387;27;20046;-76
2022/11/08 09:24:43;;;;;;;5.13;2.72;;;;;;;6.55;100.00;99561.03;10631993;27;20040;-76
2022/11/08 09:29:49;;;;;;;2.15;1.70;;;;;;;6.61;100.00;99556.41;10686620;27;20046;-75
2022/11/08 09:34:54;;;;;;;5.88;2.10;;;;;;;6.62;100.00;99547.13;10638143;27;20104;-78
2022/11/08 09:39:56;;;;;;;3.85;2.00;;;;;;;6.69;100.00;99546.81;10636265;27;20043;-78
2022/11/08 09:45:20;;;;;;;4.72;1.83;;;;;;;6.72;100.00;99541.59;10624890;27;20066;-77
2022/11/08 09:56:20;;;;;;;7.45;2.40;;;;;;;6.82;100.00;99535.28;10637079;27;20039;-77
2022/11/08 10:01:22;;;;;;;3.30;2.10;;;;;;;6.84;100.00;99522.97;10613052;28;20051;-77
2022/11/08 10:06:48;;;;;;;3.03;1.85;;;;;;;6.88;100.00;99534.94;10613062;28;20125;-78
2022/11/08 10:12:15;;;;;;;4.28;2.38;;;;;;;6.93;100.00;99509.53;10624226;27;20039;-77
2022/11/08 10:17:48;;;;;;;5.65;1.95;;;;;;;6.95;100.00;99510.91;10648942;28;20039;-77
2022/11/08 10:23:03;;;;;;;5.00;2.03;;;;;;;7.00;100.00;99507.31;10635296;28;20043;-76
2022/11/08 10:28:06;;;;;;;5.30;1.80;;;;;;;7.06;100.00;99508.09;10625640;27;20519;-75
2022/11/08 10:33:37;;;;;;;2.45;1.77;;;;;;;7.08;100.00;99498.50;10661296;27;20061;-76
2022/11/08 10:39:02;;;;;;;2.67;1.80;;;;;;;7.11;100.00;99497.13;10638491;27;20038;-76
2022/11/08 10:44:11;;;;;;;2.75;1.52;;;;;;;7.13;100.00;99503.94;10636855;27;20050;-76
2022/11/08 10:49:36;;;;;;;5.25;1.77;;;;;;;7.17;100.00;99501.44;10656682;27;20042;-76
2022/11/08 10:54:39;;;;;;;1.95;1.13;;;;;;;7.19;100.00;99501.97;10654051;27;20046;-78
2022/11/08 10:59:45;;;;;;;2.27;1.30;;;;;;;7.21;100.00;99495.13;10667034;27;20552;-79
2022/11/08 11:04:50;;;;;;;3.00;1.70;;;;;;;7.24;100.00;99491.00;10577125;28;20501;-76
2022/11/08 11:09:52;;;;;;;5.07;1.35;;;;;;;7.25;100.00;99489.91;10635724;27;20051;-77
2022/11/08 11:14:56;;;;;;;3.50;1.80;;;;;;;7.27;100.00;99487.69;10581135;28;20039;-76
2022/11/08 11:19:59;;;;;;;2.00;1.40;;;;;;;7.31;100.00;99480.59;10597859;28;20040;-76
2022/11/08 11:25:06;;;;;;;3.65;1.80;;;;;;;7.32;100.00;99495.84;10615193;28;20047;-76
2022/11/08 11:30:20;;;;;;;2.63;1.52;;;;;;;7.35;100.00;99497.19;10612486;28;20055;-76
2022/11/08 11:35:23;;;;;;;1.85;1.00;;;;;;;7.41;100.00;99493.28;10600668;28;20048;-76
2022/11/08 11:40:36;;;;;;;6.15;1.85;;;;;;;7.42;100.00;99498.47;10572719;28;20085;-76
2022/11/08 11:46:04;;;;;;;2.42;1.60;;;;;;;7.47;100.00;99494.91;10631487;27;20042;-76
2022/11/08 11:51:10;;;;;;;2.47;1.63;;;;;;;7.54;100.00;99492.63;10582017;28;20043;-75
2022/11/08 11:56:39;;;;;;;2.00;1.52;;;;;;;7.54;100.00;99498.91;10612521;28;20050;-74
2022/11/08 12:02:03;;;;;;;1.73;1.60;;;;;;;7.54;100.00;99509.81;10635252;27;20050;-75
2022/11/08 12:07:24;;;;;;;5.20;1.75;;;;;;;7.55;100.00;99513.34;10644925;27;20058;-76
2022/11/08 12:12:54;;;;;;;2.97;1.50;;;;;;;7.54;100.00;99509.00;10617429;27;20043;-76
2022/11/08 12:18:37;;;;;;;1.52;1.20;;;;;;;7.53;100.00;99512.84;10625789;27;20405;-75
2022/11/08 12:23:55;;;;;;;1.48;1.17;;;;;;;7.53;100.00;99516.38;10633046;27;20075;-77
2022/11/08 12:29:06;;;;;;;2.30;1.17;;;;;;;7.54;100.00;99526.19;10626736;27;20039;-76
2022/11/08 12:35:00;;;;;;;2.45;1.30;;;;;;;7.51;100.00;99521.31;10636747;27;20039;-78
2022/11/08 12:40:05;;;;;;;;;;;;;;;7.51;100.00;99534.16;10642294;27;20497;-78
2022/11/08 12:45:29;;;;;;;2.05;1.48;;;;;;;7.53;100.00;99545.59;10633864;27;19942;-78
2022/11/08 12:50:55;;;;;;;2.72;1.48;;;;;;;7.56;100.00;99540.38;10658902;27;20037;-78
2022/11/08 12:56:27;;;;;;;1.88;1.27;;;;;;;7.56;100.00;99545.81;10640390;27;20047;-77
2022/11/08 13:01:30;;;;;;;1.73;1.30;;;;;;;7.55;100.00;99546.94;10629378;27;20062;-76
2022/11/08 13:06:58;;;;;;;3.13;1.08;;;;;;;7.53;100.00;99540.94;10628338;27;20043;-74
2022/11/08 13:12:38;;;;;;;1.20;1.02;;;;;;;7.51;100.00;99548.63;10651994;27;20042;-74
2022/11/08 13:18:06;;;;;;;2.95;1.30;;;;;;;7.50;100.00;99563.38;10632838;27;20043;-73
2022/11/08 13:23:13;;;;;;;;;;;;;;;7.50;100.00;99566.09;10627283;27;20043;-74
2022/11/08 13:28:34;;;;;;;2.00;1.25;;;;;;;7.46;100.00;99577.84;10658561;27;19926;-80
2022/11/08 13:33:40;;;;;;;1.90;1.38;;;;;;;7.48;100.00;99567.47;10632169;27;20051;-77
2022/11/08 13:38:48;;;;;;;1.50;1.13;;;;;;;7.45;100.00;99573.50;10633317;27;20043;-78
2022/11/08 13:43:53;;;;;;;1.88;1.30;;;;;;;7.43;100.00;99567.50;10628251;27;20402;-77
2022/11/08 13:49:08;;;;;;;2.65;1.30;;;;;;;7.36;100.00;99570.59;10644615;27;20026;-77
2022/11/08 13:54:19;;;;;;;2.25;1.20;;;;;;;7.32;100.00;99583.19;10625494;27;20540;-74
2022/11/08 13:59:30;;;;;;;1.10;0.90;;;;;;;7.28;100.00;99587.56;10667337;27;20058;-74
2022/11/08 14:04:37;;;;;;;0.82;0.80;;;;;;;7.21;100.00;99593.34;10662500;27;20046;-74
2022/11/08 14:09:39;;;;;;;1.98;0.80;;;;;;;7.21;100.00;99604.25;10662496;27;20050;-75
2022/11/08 14:15:11;;;;;;;0.70;0.70;;;;;;;7.17;100.00;99605.94;10643634;27;20046;-74
2022/11/08 14:20:45;;;;;;;0.73;0.52;;;;;;;7.14;100.00;99601.03;10630196;27;20043;-74
2022/11/08 14:26:03;;;;;;;0.60;0.40;;;;;;;7.19;100.00;99605.66;10612863;27;20047;-74
2022/11/08 14:31:26;;;;;;;1.10;1.00;;;;;;;7.18;100.00;99599.38;10623064;27;20035;-74
2022/11/08 14:36:29;;;;;;;1.15;0.75;;;;;;;7.16;100.00;99609.75;10600193;28;20039;-74
2022/11/08 14:41:32;;;;;;;0.95;0.90;;;;;;;7.17;100.00;99619.56;10622166;27;20040;-74
2022/11/08 14:46:38;;;;;;;0.55;0.50;;;;;;;7.13;100.00;99617.69;10617310;27;20042;-74
2022/11/08 14:51:41;;;;;;;2.30;0.70;;;;;;;7.12;100.00;99624.25;10628285;27;20040;-74
2022/11/08 14:56:44;;;;;;;2.22;1.20;;;;;;;7.12;100.00;99632.44;10636145;27;20042;-74
2022/11/08 15:01:47;;;;;;;1.48;1.15;;;;;;;7.13;100.00;99623.16;10679897;27;20039;-74
2022/11/08 15:06:52;;;;;;;2.30;1.10;;;;;;;7.09;100.00;99627.53;10670453;27;20043;-74
2022/11/08 15:11:57;;;;;;;3.33;1.15;;;;;;;7.07;100.00;99635.19;10653525;27;20047;-74
2022/11/08 15:16:59;;;;;;;1.23;0.93;;;;;;;7.03;100.00;99640.38;10635062;27;20039;-74
2022/11/08 15:22:21;;;;;;;1.20;1.10;;;;;;;7.05;100.00;99648.28;10692553;27;20046;-73
2022/11/08 15:27:23;;;;;;;1.50;1.40;;;;;;;7.03;100.00;99656.75;10598068;28;20441;-74
2022/11/08 15:32:25;;;;;;;2.17;1.10;;;;;;;7.02;100.00;99660.59;10598375;27;20513;-74
2022/11/08 15:37:35;;;;;;;2.53;1.50;;;;;;;7.04;100.00;99672.03;10643015;27;20489;-74
2022/11/08 15:42:42;;;;;;;1.42;1.10;;;;;;;7.04;100.00;99679.41;10613907;27;20039;-74
2022/11/08 15:47:46;;;;;;;1.23;1.10;;;;;;;7.04;100.00;99682.94;10661703;27;20501;-74
2022/11/08 15:52:50;;;;;;;1.67;1.55;;;;;;;7.07;100.00;99684.28;10648457;27;20039;-74
2022/11/08 15:57:53;;;;;;;3.17;1.45;;;;;;;7.09;100.00;99684.81;10646017;27;20390;-73
2022/11/08 16:02:55;;;;;;;3.10;1.67;;;;;;;7.10;100.00;99684.53;10649839;27;20054;-73
2022/11/08 16:07:57;;;;;;;2.38;1.48;;;;;;;7.12;100.00;99697.91;10657055;27;20050;-74
2022/11/08 16:13:00;;;;;;;2.53;1.30;;;;;;;7.09;100.00;99701.19;10648589;27;20047;-75
2022/11/08 16:18:03;;;;;;;2.28;1.40;;;;;;;7.10;100.00;99700.09;10623495;27;20051;-74
2022/11/08 16:23:09;;;;;;;1.95;1.25;;;;;;;7.10;100.00;99705.53;10621607;27;20051;-76
2022/11/08 16:28:25;;;;;;;3.53;1.50;;;;;;;7.11;100.00;99718.91;10645104;27;20047;-75
2022/11/08 16:33:29;;;;;;;2.72;1.90;;;;;;;7.12;100.00;99717.00;10603314;27;20537;-76
2022/11/08 16:38:34;;;;;;;1.42;1.20;;;;;;;7.13;100.00;99726.81;10616707;27;20043;-74
2022/11/08 16:43:36;;;;;;;3.50;1.95;;;;;;;7.09;100.00;99721.09;10647520;27;20406;-74
2022/11/08 16:48:40;;;;;;;3.20;2.05;;;;;;;7.11;100.00;99737.19;10652864;27;20551;-75
2022/11/08 16:53:42;;;;;;;5.38;2.00;;;;;;;7.09;100.00;99742.91;10624391;27;20039;-75
2022/11/08 16:58:44;;;;;;;4.90;1.90;;;;;;;7.10;100.00;99746.47;10650878;27;20466;-75
2022/11/08 17:03:46;;;;;;;3.35;1.90;;;;;;;7.07;100.00;99755.22;10651639;27;20051;-76
2022/11/08 17:08:49;;;;;;;1.98;1.67;;;;;;;7.05;100.00;99763.66;10649314;27;20363;-76
2022/11/08 17:13:52;;;;;;;2.40;1.20;;;;;;;7.02;100.00;99769.69;10649177;27;20039;-75
2022/11/08 17:18:54;;;;;;;3.85;1.42;;;;;;;6.99;100.00;99763.97;10645320;27;20075;-76
2022/11/08 17:23:56;;;;;;;2.47;1.50;;;;;;;6.94;100.00;99784.72;10646592;27;20041;-76
2022/11/08 17:28:58;;;;;;;1.77;1.40;;;;;;;6.93;100.00;99790.44;10640895;27;20413;-75
2022/11/08 17:34:01;;;;;;;3.08;2.42;;;;;;;7.05;100.00;99785.50;10649654;27;20035;-75
2022/11/08 17:39:04;;;;;;;1.90;1.70;;;;;;;7.06;100.00;99780.84;10653675;27;20035;-75
2022/11/08 17:44:07;;;;;;;2.25;1.60;;;;;;;7.01;100.00;99799.97;10624585;27;20394;-75
2022/11/08 17:49:09;;;;;;;1.65;1.55;;;;;;;6.92;100.00;99797.81;10637670;27;20516;-75
2022/11/08 17:54:11;;;;;;;3.05;1.48;;;;;;;6.89;100.00;99803.81;10644180;27;20038;-75
2022/11/08 17:59:14;;;;;;;2.53;1.65;;;;;;;6.86;100.00;99812.56;10645610;27;20047;-76
2022/11/08 18:04:16;;;;;;;4.40;1.60;;;;;;;6.84;100.00;99812.03;10654412;27;20039;-75
2022/11/08 18:09:19;;;;;;;3.53;1.70;;;;;;;6.84;100.00;99820.19;10651081;27;20039;-75
2022/11/08 18:14:24;;;;;;;2.40;1.52;;;;;;;6.81;100.00;99828.94;10648736;27;20409;-75
2022/11/08 18:19:27;;;;;;;2.35;1.52;;;;;;;6.77;100.00;99844.22;10606974;28;20039;-76
2022/11/08 18:24:29;;;;;;;1.05;0.95;;;;;;;6.78;100.00;99848.59;10628983;28;20043;-75
2022/11/08 18:29:31;;;;;;;1.73;1.05;;;;;;;6.78;100.00;99856.75;10646781;28;20418;-77
2022/11/08 18:34:33;;;;;;;3.13;1.70;;;;;;;6.77;100.00;99866.03;10650687;28;20035;-85
2022/11/08 18:39:36;;;;;;;2.13;1.48;;;;;;;6.77;100.00;99859.75;10650828;28;20070;-76
2022/11/08 18:44:38;;;;;;;2.92;1.55;;;;;;;6.76;100.00;99875.28;10647733;28;20043;-76
2022/11/08 18:49:40;;;;;;;3.70;1.88;;;;;;;6.74;100.00;99882.91;10632157;27;20604;-75
2022/11/08 18:54:44;;;;;;;3.35;1.67;;;;;;;6.74;100.00;99896.56;10650297;27;20055;-76
2022/11/08 18:59:47;;;;;;;2.20;1.52;;;;;;;6.70;100.00;99903.66;10633173;27;20051;-74
2022/11/08 19:04:49;;;;;;;2.95;1.30;;;;;;;6.71;100.00;99908.00;10622048;27;20066;-75
2022/11/08 19:09:52;;;;;;;4.10;1.40;;;;;;;6.67;100.00;99923.28;10648783;27;20036;-75
2022/11/08 19:14:54;;;;;;;3.85;1.55;;;;;;;6.66;100.00;99929.84;10652595;27;20051;-75
2022/11/08 19:19:57;;;;;;;2.17;1.50;;;;;;;6.81;100.00;99940.75;10649548;27;20054;-73
2022/11/08 19:25:00;;;;;;;1.70;1.40;;;;;;;6.87;100.00;99953.28;10639825;27;20039;-74
2022/11/08 19:30:06;;;;;;;1.48;1.27;;;;;;;6.80;100.00;99946.47;10628104;27;20412;-72
2022/11/08 19:35:09;;;;;;;1.40;1.30;;;;;;;6.72;100.00;99963.34;10639860;27;20137;-73
2022/11/08 19:40:15;;;;;;;4.45;2.05;;;;;;;6.72;100.00;99972.34;10636442;27;20498;-74
2022/11/08 19:45:18;;;;;;;3.00;1.00;;;;;;;6.64;100.00;99972.91;10649893;27;20034;-73
2022/11/08 19:50:21;;;;;;;2.83;1.05;;;;;;;6.62;100.00;99977.81;10657003;27;20039;-84
2022/11/08 19:55:23;;;;;;;1.20;1.10;;;;;;;6.54;100.00;99991.97;10656493;27;20069;-82
2022/11/08 20:00:26;;;;;;;2.15;1.10;;;;;;;6.58;100.00;99998.50;10658285;27;20035;-86
2022/11/08 20:05:28;;;;;;;8.20;3.13;;;;;;;6.57;100.00;100002.31;10656519;27;20497;-80
2022/11/08 20:10:30;;;;;;;5.05;1.98;;;;;;;6.59;100.00;100013.78;10655955;27;20061;-81
2022/11/08 20:21:05;;;;;;;0.77;0.77;;;;;;;6.53;100.00;100023.03;10642719;27;20062;-82
2022/11/08 20:26:30;;;;;;;0.60;0.60;;;;;;;6.48;100.00;100034.75;10634923;27;20556;-81
2022/11/08 20:31:37;;;;;;;2.25;0.80;;;;;;;6.43;100.00;100033.94;10656118;27;20050;-80
2022/11/08 20:36:40;;;;;;;0.63;0.43;;;;;;;6.28;100.00;100040.16;10613045;27;20459;-83
2022/11/08 20:41:43;;;;;;;0.55;0.50;;;;;;;6.16;100.00;100042.28;10619418;27;20039;-77
2022/11/08 20:46:45;;;;;;;0.77;0.47;;;;;;;6.08;100.00;100051.78;10654762;27;20039;-77
2022/11/08 20:51:47;;;;;;;0.30;0.30;;;;;;;6.02;100.00;100055.56;10655021;27;20046;-77
2022/11/08 20:56:54;;;;;;;1.20;0.82;;;;;;;5.92;100.00;100064.50;10634050;27;20046;-75
2022/11/08 21:01:56;;;;;;;0.25;0.20;;;;;;;5.87;100.00;100058.19;10634096;27;20054;-75
2022/11/08 21:06:59;;;;;;;0.40;0.40;;;;;;;5.85;100.00;100060.34;10634106;27;20134;-75
2022/11/08 21:12:02;;;;;;;0.45;0.45;;;;;;;5.88;99.29;100071.53;10652278;27;20039;-74
2022/11/08 21:17:04;;;;;;;0.40;0.40;;;;;;;5.86;98.84;100081.84;10649777;27;20047;-73
2022/11/08 21:22:15;;;;;;;0.40;0.38;;;;;;;5.81;99.03;100081.03;10652867;27;20054;-74
2022/11/08 21:27:18;;;;;;;0.93;0.50;;;;;;;5.79;98.14;100077.75;10617999;27;20043;-87
2022/11/08 21:32:20;;;;;;;1.05;0.30;;;;;;;5.75;98.29;100091.88;10658014;27;20051;-85
2022/11/08 21:37:22;;;;;;;0.40;0.10;;;;;;;5.73;98.52;100101.41;10656140;27;20027;-85
2022/11/08 21:42:24;;;;;;;0.52;0.35;;;;;;;5.69;97.92;100101.09;10635023;27;20047;-82
2022/11/08 21:47:27;;;;;;;0.35;0.30;;;;;;;5.64;98.07;100106.50;10633515;27;20038;-87
2022/11/08 21:52:29;;;;;;;1.55;0.30;;;;;;;5.62;97.19;100113.28;10634441;27;20042;-78
2022/11/08 21:57:31;;;;;;;0.30;0.30;;;;;;;5.58;97.16;100121.16;10631250;27;20700;-86
2022/11/08 22:02:34;;;;;;;0.50;0.32;;;;;;;5.54;97.13;100122.75;10627276;27;20848;-85
2022/11/08 22:07:36;;;;;;;0.90;0.55;;;;;;;5.48;96.43;100123.78;10597772;28;20533;-73
2022/11/08 22:12:39;;;;;;;0.35;0.28;;;;;;;5.40;96.49;100136.00;10641532;28;20063;-72
2022/11/08 22:17:43;;;;;;;2.92;0.20;;;;;;;5.32;96.34;100143.78;10649199;28;20039;-75
2022/11/08 22:22:46;;;;;;;0.73;0.20;;;;;;;5.22;96.39;100143.72;10657417;27;20035;-77
2022/11/08 22:27:49;;;;;;;1.33;0.28;;;;;;;5.14;96.75;100158.59;10656381;27;20043;-75
2022/11/08 22:32:52;;;;;;;0.40;0.40;;;;;;;5.04;96.45;100167.47;10638014;27;20472;-73
2022/11/08 22:37:54;;;;;;;0.40;0.20;;;;;;;5.01;97.25;100170.69;10659102;27;20047;-76
2022/11/08 22:42:56;;;;;;;0.40;0.35;;;;;;;4.93;97.48;100179.31;10627553;27;20038;-73
2022/11/08 22:47:59;;;;;;;0.30;0.30;;;;;;;4.87;97.27;100191.22;10654313;27;20062;-73
2022/11/08 22:53:01;;;;;;;0.22;0.22;;;;;;;4.90;98.02;100189.88;10656461;27;20047;-74
2022/11/08 22:58:03;;;;;;;0.25;0.20;;;;;;;4.86;97.56;100195.00;10647454;27;20043;-72
2022/11/08 23:03:05;;;;;;;0.40;0.40;;;;;;;4.82;98.05;100196.56;10627162;27;20055;-74
2022/11/08 23:08:08;;;;;;;0.32;0.30;;;;;;;4.73;98.25;100189.97;10657874;27;20043;-74
2022/11/08 23:18:31;;;;;;;0.40;0.40;;;;;;;4.63;98.36;100211.56;10647872;27;20035;-74
2022/11/08 23:34:16;;;;;;;0.32;0.30;;;;;;;4.66;98.16;100230.06;10605942;27;20043;-77
2022/11/08 23:39:18;;;;;;;0.60;0.60;;;;;;;4.68;98.59;100236.91;10612138;27;20031;-74
2022/11/08 23:44:23;;;;;;;0.50;0.50;;;;;;;4.72;98.41;100246.22;10653010;27;20043;-75
2022/11/08 23:49:25;;;;;;;0.50;0.50;;;;;;;4.79;98.64;100259.59;10619004;27;20035;-76
2022/11/08 23:54:28;;;;;;;0.20;0.20;;;;;;;4.76;98.47;100250.06;10637898;27;20039;-75
2022/11/08 23:59:30;;;;;;;0.32;0.32;;;;;;;4.74;98.85;100256.84;10652504;27;20497;-73
